createdAt,value
2019-02-05T00:00:38.290Z,94955.56
2019-02-05T00:03:09.898Z,94963.84
2019-02-05T00:05:38.570Z,94962.03
2019-02-05T00:08:07.243Z,94960.67
2019-02-05T00:10:36.025Z,94957.23
2019-02-05T00:13:05.813Z,94963.84
2019-02-05T00:15:34.763Z,94964.45
2019-02-05T00:18:03.427Z,94967.59
2019-02-05T00:20:32.325Z,94963.53
2019-02-05T00:23:01.174Z,94965.48
2019-02-05T00:25:30.006Z,94954.67
2019-02-05T00:27:58.691Z,94960.23
2019-02-05T00:30:28.059Z,94955.44
2019-02-05T00:32:56.718Z,94953.66
2019-02-05T00:35:25.418Z,94956.20
2019-02-05T00:37:54.422Z,94957.39
2019-02-05T00:40:23.116Z,94956.05
2019-02-05T00:42:52.238Z,94951.69
2019-02-05T00:45:22.179Z,94964.15
2019-02-05T00:47:50.838Z,94954.39
2019-02-05T00:50:20.320Z,94960.69
2019-02-05T00:52:49.886Z,94952.28
2019-02-05T00:55:19.996Z,94953.79
2019-02-05T00:57:48.765Z,94953.03
2019-02-05T01:00:29.966Z,94954.68
2019-02-05T01:02:59.146Z,94959.52
2019-02-05T01:05:28.011Z,94946.72
2019-02-05T01:07:57.476Z,94945.06
2019-02-05T01:10:26.748Z,94945.66
2019-02-05T01:12:55.998Z,94952.73
2019-02-05T01:15:26.260Z,94950.20
2019-02-05T01:17:55.260Z,94951.98
2019-02-05T01:20:24.416Z,94945.38
2019-02-05T01:22:53.629Z,94936.80
2019-02-05T01:25:23.498Z,94943.88
2019-02-05T01:27:52.758Z,94925.70
2019-02-05T01:30:26.474Z,94942.81
2019-02-05T01:32:55.244Z,94942.81
2019-02-05T01:35:24.186Z,94941.76
2019-02-05T01:37:53.364Z,94935.61
2019-02-05T01:40:26.658Z,94933.52
2019-02-05T01:42:55.922Z,94931.69
2019-02-05T01:45:25.299Z,94928.39
2019-02-05T01:47:54.342Z,94930.51
2019-02-05T01:50:25.123Z,94923.89
2019-02-05T01:52:54.193Z,94924.49
2019-02-05T01:55:23.747Z,94936.66
2019-02-05T01:57:52.788Z,94931.84
2019-02-05T02:00:26.978Z,94932.91
2019-02-05T02:02:55.681Z,94939.06
2019-02-05T02:05:24.923Z,94929.61
2019-02-05T02:07:53.584Z,94931.55
2019-02-05T02:10:30.389Z,94927.04
2019-02-05T02:12:59.569Z,94920.44
2019-02-05T02:15:28.650Z,94921.63
2019-02-05T02:17:57.356Z,94931.68
2019-02-05T02:20:26.287Z,94929.42
2019-02-05T02:22:55.239Z,94919.80
2019-02-05T02:25:24.104Z,94926.27
2019-02-05T02:27:52.944Z,94927.78
2019-02-05T02:30:24.377Z,94919.67
2019-02-05T02:32:53.102Z,94925.50
2019-02-05T02:35:22.091Z,94926.39
2019-02-05T02:37:51.339Z,94921.15
2019-02-05T02:40:20.123Z,94924.77
2019-02-05T02:42:48.873Z,94926.30
2019-02-05T02:45:17.665Z,94922.83
2019-02-05T02:47:46.440Z,94921.91
2019-02-05T02:50:17.579Z,94925.66
2019-02-05T02:52:46.781Z,94931.55
2019-02-05T02:55:16.253Z,94932.73
2019-02-05T02:57:45.552Z,94931.69
2019-02-05T03:00:21.940Z,94931.98
2019-02-05T03:02:51.854Z,94936.81
2019-02-05T03:05:22.942Z,94941.41
2019-02-05T03:07:52.655Z,94938.08
2019-02-05T03:10:23.716Z,94942.00
2019-02-05T03:12:52.977Z,94943.25
2019-02-05T03:15:22.054Z,94944.92
2019-02-05T03:17:50.712Z,94935.00
2019-02-05T03:20:19.401Z,94938.45
2019-02-05T03:22:48.098Z,94943.70
2019-02-05T03:25:22.850Z,94934.33
2019-02-05T03:27:53.698Z,94924.28
2019-02-05T03:30:24.833Z,94925.03
2019-02-05T03:32:55.542Z,94931.91
2019-02-05T03:35:24.774Z,94930.99
2019-02-05T03:37:53.493Z,94933.13
2019-02-05T03:40:31.202Z,94933.13
2019-02-05T03:43:00.169Z,94934.66
2019-02-05T03:45:31.852Z,94922.80
2019-02-05T03:48:02.962Z,94922.77
2019-02-05T03:50:33.779Z,94925.03
2019-02-05T03:53:11.643Z,94926.22
2019-02-05T03:56:03.993Z,94914.97
2019-02-05T03:58:56.381Z,94919.78
2019-02-05T04:01:52.190Z,94919.92
2019-02-05T04:04:33.123Z,94923.19
2019-02-05T04:07:37.864Z,94899.20
2019-02-05T04:10:25.908Z,94920.30
2019-02-05T04:13:24.357Z,94923.38
2019-02-05T04:16:13.615Z,94916.20
2019-02-05T04:19:16.999Z,94920.88
2019-02-05T04:21:57.865Z,94915.98
2019-02-05T04:24:48.913Z,94915.84
2019-02-05T04:27:25.995Z,94906.32
2019-02-05T04:29:57.790Z,94908.78
2019-02-05T04:32:48.771Z,94901.84
2019-02-05T04:35:29.357Z,94907.56
2019-02-05T04:38:21.886Z,94915.11
2019-02-05T04:41:05.070Z,94908.23
2019-02-05T04:43:42.586Z,94905.84
2019-02-05T04:46:29.573Z,94909.92
2019-02-05T04:49:04.499Z,94909.63
2019-02-05T04:51:53.748Z,94908.23
2019-02-05T04:54:34.098Z,94904.77
2019-02-05T04:57:34.407Z,94907.59
2019-02-05T05:00:32.990Z,94909.73
2019-02-05T05:06:00.324Z,94921.85
2019-02-05T05:08:34.683Z,94923.36
2019-02-05T05:11:03.658Z,94919.03
2019-02-05T05:13:33.055Z,94931.61
2019-02-05T05:16:02.223Z,94922.05
2019-02-05T05:18:31.032Z,94922.65
2019-02-05T05:21:00.612Z,94926.55
2019-02-05T05:23:29.607Z,94931.23
2019-02-05T05:25:58.565Z,94933.48
2019-02-05T05:28:27.353Z,94927.16
2019-02-05T05:30:56.852Z,94928.98
2019-02-05T05:33:25.517Z,94925.96
2019-02-05T05:35:54.505Z,94932.30
2019-02-05T05:38:23.211Z,94934.84
2019-02-05T05:40:51.852Z,94940.09
2019-02-05T05:43:20.628Z,94941.59
2019-02-05T05:45:49.439Z,94936.33
2019-02-05T05:48:18.523Z,94936.62
2019-02-05T05:50:47.184Z,94939.48
2019-02-05T05:53:16.013Z,94947.55
2019-02-05T05:55:44.779Z,94940.81
2019-02-05T05:58:22.300Z,94948.03
2019-02-05T06:00:43.848Z,94948.05
2019-02-05T06:03:12.822Z,94952.70
2019-02-05T06:05:41.664Z,94955.86
2019-02-05T06:08:10.833Z,94955.13
2019-02-05T06:10:39.516Z,94960.39
2019-02-05T06:13:08.189Z,94961.13
2019-02-05T06:15:37.097Z,94962.77
2019-02-05T06:18:06.006Z,94960.22
2019-02-05T06:20:35.266Z,94958.98
2019-02-05T06:23:04.058Z,94966.22
2019-02-05T06:25:33.070Z,94967.89
2019-02-05T06:28:01.728Z,94965.94
2019-02-05T06:30:30.566Z,94978.69
2019-02-05T06:32:59.366Z,94966.98
2019-02-05T06:35:28.066Z,94976.16
2019-02-05T06:37:56.843Z,94971.95
2019-02-05T06:40:25.539Z,94972.88
2019-02-05T06:42:54.206Z,94972.13
2019-02-05T06:45:23.188Z,94949.73
2019-02-05T06:47:52.304Z,94965.97
2019-02-05T06:50:21.400Z,94970.16
2019-02-05T06:52:50.783Z,94975.29
2019-02-05T06:55:19.877Z,94970.61
2019-02-05T06:57:48.563Z,94970.47
2019-02-05T07:00:22.729Z,94977.22
2019-02-05T07:02:53.011Z,94974.38
2019-02-05T07:05:21.961Z,94970.92
2019-02-05T07:07:51.633Z,94968.83
2019-02-05T07:10:24.657Z,94981.00
2019-02-05T07:12:54.417Z,94966.84
2019-02-05T07:15:23.364Z,94974.69
2019-02-05T07:17:52.034Z,94960.26
2019-02-05T07:20:21.187Z,94980.38
2019-02-05T07:22:50.653Z,94973.30
2019-02-05T07:25:20.976Z,94984.42
2019-02-05T07:27:49.849Z,94970.73
2019-02-05T07:30:21.504Z,94984.41
2019-02-05T07:32:50.510Z,94979.33
2019-02-05T07:35:19.325Z,94974.06
2019-02-05T07:37:48.912Z,94972.86
2019-02-05T07:40:20.849Z,94982.16
2019-02-05T07:42:49.662Z,94980.82
2019-02-05T07:45:23.555Z,94983.38
2019-02-05T07:47:52.524Z,94989.70
2019-02-05T07:50:29.305Z,94984.59
2019-02-05T07:52:57.370Z,94989.70
2019-02-05T07:55:29.446Z,94998.70
2019-02-05T07:58:00.233Z,94992.72
2019-02-05T08:00:31.586Z,94992.42
2019-02-05T08:03:00.858Z,94988.50
2019-02-05T08:05:33.144Z,94984.75
2019-02-05T08:08:03.459Z,94988.05
2019-02-05T08:10:33.257Z,94987.30
2019-02-05T08:13:03.139Z,94985.63
2019-02-05T08:15:33.636Z,94975.67
2019-02-05T08:18:03.106Z,94983.18
2019-02-05T08:20:32.259Z,94984.69
2019-02-05T08:23:01.084Z,94985.09
2019-02-05T08:25:31.471Z,94985.73
2019-02-05T08:28:01.127Z,94976.08
2019-02-05T08:30:35.604Z,94987.70
2019-02-05T08:33:05.202Z,94988.72
2019-02-05T08:35:34.128Z,94986.63
2019-02-05T08:38:03.103Z,94988.92
2019-02-05T08:40:32.399Z,94989.23
2019-02-05T08:43:01.457Z,94990.20
2019-02-05T08:45:35.874Z,94984.05
2019-02-05T08:48:06.586Z,94983.83
2019-02-05T08:50:35.359Z,94987.19
2019-02-05T08:53:04.442Z,94983.95
2019-02-05T08:55:33.713Z,94985.13
2019-02-05T08:58:05.461Z,94992.02
2019-02-05T09:00:36.213Z,94991.16
2019-02-05T09:03:05.676Z,94986.45
2019-02-05T09:05:34.945Z,94990.71
2019-02-05T09:08:04.516Z,94989.47
2019-02-05T09:10:38.990Z,94988.81
2019-02-05T09:13:08.419Z,94992.14
2019-02-05T09:15:37.193Z,94988.84
2019-02-05T09:18:06.351Z,94992.23
2019-02-05T09:20:35.012Z,94987.02
2019-02-05T09:23:07.875Z,94989.97
2019-02-05T09:25:36.998Z,94988.78
2019-02-05T09:28:06.101Z,94986.19
2019-02-05T09:30:36.422Z,94973.56
2019-02-05T09:33:16.708Z,94974.72
2019-02-05T09:35:46.078Z,94968.20
2019-02-05T09:38:14.829Z,94927.40
2019-02-05T09:40:47.852Z,94969.50
2019-02-05T09:43:16.808Z,94965.09
2019-02-05T09:45:45.599Z,94964.56
2019-02-05T09:48:14.499Z,94969.02
2019-02-05T09:50:44.982Z,94956.22
2019-02-05T09:53:14.250Z,94966.47
2019-02-05T09:55:45.486Z,94966.40
2019-02-05T09:58:14.200Z,94962.50
2019-02-05T10:00:43.557Z,94945.56
2019-02-05T10:03:12.300Z,94952.70
2019-02-05T10:05:41.835Z,94945.71
2019-02-05T10:08:10.773Z,94945.95
2019-02-05T10:10:39.628Z,94937.50
2019-02-05T10:13:08.568Z,94937.53
2019-02-05T10:15:40.288Z,94928.58
2019-02-05T10:18:11.364Z,94937.15
2019-02-05T10:20:40.768Z,94883.59
2019-02-05T10:23:10.254Z,94921.77
2019-02-05T10:25:39.096Z,94913.28
2019-02-05T10:28:08.308Z,94910.37
2019-02-05T10:30:39.408Z,94910.34
2019-02-05T10:33:10.084Z,94904.88
2019-02-05T10:35:39.191Z,94909.33
2019-02-05T10:38:08.267Z,94900.66
2019-02-05T10:40:37.394Z,94902.20
2019-02-05T10:43:06.961Z,94892.84
2019-02-05T10:45:36.468Z,94892.63
2019-02-05T10:48:07.231Z,94897.62
2019-02-05T10:50:37.284Z,94895.66
2019-02-05T10:53:06.415Z,94886.17
2019-02-05T10:55:35.397Z,94880.28
2019-02-05T10:58:04.711Z,94878.02
2019-02-05T11:00:34.156Z,94876.66
2019-02-05T11:03:05.210Z,94879.44
2019-02-05T11:05:34.269Z,94873.34
2019-02-05T11:08:03.924Z,94872.97
2019-02-05T11:10:32.792Z,94868.73
2019-02-05T11:13:01.761Z,94860.89
2019-02-05T11:15:32.741Z,94844.95
2019-02-05T11:18:03.302Z,94846.31
2019-02-05T11:20:34.145Z,94852.92
2019-02-05T11:23:03.749Z,94845.75
2019-02-05T11:25:43.319Z,94850.83
2019-02-05T11:28:11.981Z,94847.05
2019-02-05T11:30:46.622Z,94838.66
2019-02-05T11:33:15.832Z,94828.28
2019-02-05T11:35:44.895Z,94831.45
2019-02-05T11:38:15.013Z,94827.27
2019-02-05T11:40:46.163Z,94809.17
2019-02-05T11:43:16.546Z,94817.05
2019-02-05T11:45:46.188Z,94811.13
2019-02-05T11:48:19.618Z,94810.31
2019-02-05T11:50:48.748Z,94793.41
2019-02-05T11:53:20.653Z,94792.78
2019-02-05T11:55:52.915Z,94799.97
2019-02-05T11:58:22.946Z,94793.02
2019-02-05T12:00:53.697Z,94793.45
2019-02-05T12:03:22.434Z,94790.05
2019-02-05T12:05:51.341Z,94795.64
2019-02-05T12:08:20.641Z,94788.21
2019-02-05T12:10:49.460Z,94784.52
2019-02-05T12:13:18.321Z,94783.39
2019-02-05T12:15:47.504Z,94790.20
2019-02-05T12:18:16.313Z,94779.41
2019-02-05T12:20:45.426Z,94766.70
2019-02-05T12:23:14.109Z,94769.84
2019-02-05T12:25:42.913Z,94759.95
2019-02-05T12:28:11.655Z,94765.75
2019-02-05T12:30:45.646Z,94754.56
2019-02-05T12:33:23.909Z,94756.70
2019-02-05T12:35:52.802Z,94749.59
2019-02-05T12:38:21.680Z,94748.86
2019-02-05T12:40:50.338Z,94746.47
2019-02-05T12:43:19.030Z,94750.86
2019-02-05T12:45:47.701Z,94741.66
2019-02-05T12:48:16.484Z,94738.96
2019-02-05T12:50:46.256Z,94743.75
2019-02-05T12:53:15.310Z,94741.73
2019-02-05T12:55:44.076Z,94745.59
2019-02-05T12:58:13.129Z,94735.30
2019-02-05T13:00:58.665Z,94731.25
2019-02-05T13:03:20.457Z,94728.83
2019-02-05T13:05:49.173Z,94731.14
2019-02-05T13:08:17.997Z,94729.48
2019-02-05T13:10:49.431Z,94724.33
2019-02-05T13:13:18.489Z,94730.67
2019-02-05T13:15:47.357Z,94728.06
2019-02-05T13:18:16.180Z,94718.32
2019-02-05T13:20:45.514Z,94716.81
2019-02-05T13:23:15.817Z,94722.67
2019-02-05T13:25:44.495Z,94715.42
2019-02-05T13:28:13.617Z,94718.86
2019-02-05T13:30:42.284Z,94718.13
2019-02-05T13:33:12.254Z,94718.71
2019-02-05T13:35:41.190Z,94717.20
2019-02-05T13:38:16.944Z,94718.92
2019-02-05T13:40:47.290Z,94722.64
2019-02-05T13:43:18.741Z,94723.72
2019-02-05T13:45:49.208Z,94728.02
2019-02-05T13:48:19.974Z,94726.72
2019-02-05T13:50:57.217Z,94713.70
2019-02-05T13:53:33.347Z,94719.85
2019-02-05T13:56:05.339Z,94711.55
2019-02-05T13:58:34.413Z,94721.83
2019-02-05T14:01:03.136Z,94717.78
2019-02-05T14:03:33.439Z,94714.18
2019-02-05T14:06:02.125Z,94716.08
2019-02-05T14:08:31.211Z,94715.58
2019-02-05T14:11:00.510Z,94721.22
2019-02-05T14:13:29.898Z,94724.82
2019-02-05T14:15:58.721Z,94725.13
2019-02-05T14:18:27.614Z,94730.55
2019-02-05T14:20:56.525Z,94733.34
2019-02-05T14:23:25.412Z,94734.96
2019-02-05T14:25:54.290Z,94735.11
2019-02-05T14:28:23.875Z,94747.32
2019-02-05T14:30:53.901Z,94742.23
2019-02-05T14:33:23.304Z,94744.30
2019-02-05T14:35:52.015Z,94738.69
2019-02-05T14:38:21.016Z,94736.63
2019-02-05T14:40:49.678Z,94740.68
2019-02-05T14:43:18.570Z,94744.36
2019-02-05T14:45:47.249Z,94747.81
2019-02-05T14:48:16.215Z,94749.08
2019-02-05T14:50:47.021Z,94718.20
2019-02-05T14:53:20.185Z,94743.13
2019-02-05T14:55:48.882Z,94748.73
2019-02-05T14:58:27.652Z,94745.00
2019-02-05T15:00:56.412Z,94745.80
2019-02-05T15:03:26.545Z,94746.97
2019-02-05T15:05:55.238Z,94744.82
2019-02-05T15:08:25.477Z,94750.25
2019-02-05T15:10:55.063Z,94755.63
2019-02-05T15:13:24.156Z,94750.08
2019-02-05T15:15:53.168Z,94751.63
2019-02-05T15:18:21.859Z,94759.70
2019-02-05T15:20:50.832Z,94760.56
2019-02-05T15:23:20.413Z,94762.80
2019-02-05T15:25:49.134Z,94765.41
2019-02-05T15:28:17.821Z,94768.56
2019-02-05T15:30:46.767Z,94773.63
2019-02-05T15:33:34.851Z,94772.45
2019-02-05T15:36:05.094Z,94775.44
2019-02-05T15:38:33.757Z,94777.82
2019-02-05T15:41:02.431Z,94778.75
2019-02-05T15:43:31.656Z,94780.26
2019-02-05T15:46:00.362Z,94785.50
2019-02-05T15:48:29.108Z,94783.08
2019-02-05T15:50:57.909Z,94795.06
2019-02-05T15:53:26.917Z,94799.48
2019-02-05T15:55:55.905Z,94796.34
2019-02-05T15:58:24.596Z,94798.99
2019-02-05T16:00:53.453Z,94794.81
2019-02-05T16:03:22.265Z,94798.64
2019-02-05T16:05:51.078Z,94800.23
2019-02-05T16:08:20.228Z,94805.89
2019-02-05T16:10:48.956Z,94809.70
2019-02-05T16:13:17.693Z,94816.06
2019-02-05T16:15:46.416Z,94816.34
2019-02-05T16:18:15.463Z,94809.23
2019-02-05T16:20:44.228Z,94809.70
2019-02-05T16:23:12.932Z,94813.48
2019-02-05T16:25:41.605Z,94816.97
2019-02-05T16:28:10.667Z,94814.95
2019-02-05T16:30:39.342Z,94817.75
2019-02-05T16:33:08.308Z,94816.30
2019-02-05T16:35:37.109Z,94815.41
2019-02-05T16:38:06.553Z,94828.09
2019-02-05T16:40:38.215Z,94821.76
2019-02-05T16:43:07.236Z,94821.14
2019-02-05T16:45:35.976Z,94821.48
2019-02-05T16:48:05.364Z,94827.05
2019-02-05T16:50:40.054Z,94833.77
2019-02-05T16:53:09.648Z,94830.14
2019-02-05T16:55:38.369Z,94827.01
2019-02-05T16:58:07.652Z,94821.88
2019-02-05T17:00:37.731Z,94821.13
2019-02-05T17:03:07.651Z,94824.88
2019-02-05T17:05:39.204Z,94823.06
2019-02-05T17:08:08.440Z,94826.54
2019-02-05T17:10:37.127Z,94827.59
2019-02-05T17:13:06.203Z,94823.22
2019-02-05T17:15:35.293Z,94823.34
2019-02-05T17:18:04.394Z,94817.75
2019-02-05T17:20:33.972Z,94814.73
2019-02-05T17:23:03.227Z,94815.77
2019-02-05T17:25:32.024Z,94797.14
2019-02-05T17:28:02.523Z,94818.12
2019-02-05T17:30:34.123Z,94813.32
2019-02-05T17:33:02.843Z,94810.00
2019-02-05T17:35:31.789Z,94814.36
2019-02-05T17:38:00.902Z,94805.77
2019-02-05T17:40:29.791Z,94807.91
2019-02-05T17:42:58.469Z,94816.35
2019-02-05T17:45:32.641Z,94815.25
2019-02-05T17:48:03.128Z,94800.04
2019-02-05T17:50:31.941Z,94792.80
2019-02-05T17:53:01.110Z,94800.30
2019-02-05T17:55:30.306Z,94797.48
2019-02-05T17:57:58.985Z,94792.38
2019-02-05T18:00:31.756Z,94797.16
2019-02-05T18:03:01.165Z,94797.75
2019-02-05T18:05:30.100Z,94795.93
2019-02-05T18:07:59.058Z,94800.78
2019-02-05T18:10:28.674Z,94796.29
2019-02-05T18:12:57.383Z,94792.47
2019-02-05T18:15:34.055Z,94794.16
2019-02-05T18:18:02.830Z,94799.56
2019-02-05T18:20:32.002Z,94796.19
2019-02-05T18:23:00.733Z,94792.89
2019-02-05T18:25:29.457Z,94794.84
2019-02-05T18:27:58.275Z,94800.87
2019-02-05T18:30:32.222Z,94813.69
2019-02-05T18:33:04.533Z,94812.33
2019-02-05T18:35:32.275Z,94813.16
2019-02-05T18:38:02.048Z,94806.08
2019-02-05T18:40:31.002Z,94811.16
2019-02-05T18:42:59.980Z,94812.41
2019-02-05T18:45:28.830Z,94810.77
2019-02-05T18:47:57.619Z,94820.72
2019-02-05T18:50:28.184Z,94818.33
2019-02-05T18:52:57.111Z,94814.47
2019-02-05T18:55:28.699Z,94812.06
2019-02-05T18:58:08.420Z,94810.83
2019-02-05T19:00:38.691Z,94809.31
2019-02-05T19:03:15.036Z,94810.09
2019-02-05T19:05:37.472Z,94809.56
2019-02-05T19:08:06.814Z,94809.87
2019-02-05T19:10:35.863Z,94808.33
2019-02-05T19:13:05.133Z,94809.92
2019-02-05T19:15:38.795Z,94808.16
2019-02-05T19:18:08.949Z,94801.98
2019-02-05T19:20:37.631Z,94803.17
2019-02-05T19:23:08.501Z,94805.67
2019-02-05T19:25:45.494Z,94804.66
2019-02-05T19:28:28.001Z,94799.56
2019-02-05T19:30:58.308Z,94787.85
2019-02-05T19:33:27.637Z,94783.89
2019-02-05T19:35:56.440Z,94790.03
2019-02-05T19:38:25.104Z,94787.81
2019-02-05T19:40:57.609Z,94779.98
2019-02-05T19:43:24.168Z,94784.34
2019-02-05T19:46:00.517Z,94770.44
2019-02-05T19:48:30.973Z,94771.47
2019-02-05T19:51:00.492Z,94766.77
2019-02-05T19:53:29.332Z,94767.91
2019-02-05T19:55:58.277Z,94775.95
2019-02-05T19:58:27.155Z,94766.77
2019-02-05T20:00:56.193Z,94759.38
2019-02-05T20:03:25.005Z,94760.72
2019-02-05T20:05:53.666Z,94759.53
2019-02-05T20:08:22.342Z,94764.70
2019-02-05T20:10:51.017Z,94781.11
2019-02-05T20:13:19.673Z,94780.95
2019-02-05T20:15:51.167Z,94774.81
2019-02-05T20:18:18.903Z,94760.64
2019-02-05T20:20:47.591Z,94759.75
2019-02-05T20:23:16.275Z,94773.83
2019-02-05T20:25:45.003Z,94775.62
2019-02-05T20:28:14.071Z,94770.56
2019-02-05T20:30:42.754Z,94772.97
2019-02-05T20:33:11.814Z,94763.03
2019-02-05T20:35:40.555Z,94766.67
2019-02-05T20:38:09.268Z,94760.45
2019-02-05T20:40:37.937Z,94748.69
2019-02-05T20:43:06.605Z,94749.55
2019-02-05T20:45:35.287Z,94744.68
2019-02-05T20:48:04.567Z,94742.09
2019-02-05T20:50:33.450Z,94744.08
2019-02-05T20:53:13.008Z,94742.31
2019-02-05T20:55:32.551Z,94746.60
2019-02-05T20:58:01.201Z,94744.23
2019-02-05T21:00:33.723Z,94741.03
2019-02-05T21:03:02.574Z,94737.76
2019-02-05T21:05:31.261Z,94739.91
2019-02-05T21:08:00.297Z,94740.39
2019-02-05T21:10:31.432Z,94742.05
2019-02-05T21:13:00.223Z,94736.41
2019-02-05T21:15:29.093Z,94739.27
2019-02-05T21:17:57.907Z,94743.47
2019-02-05T21:20:32.738Z,94741.24
2019-02-05T21:22:59.235Z,94740.66
2019-02-05T21:25:28.427Z,94735.20
2019-02-05T21:27:58.211Z,94721.81
2019-02-05T21:30:28.070Z,94713.36
2019-02-05T21:32:56.780Z,94720.38
2019-02-05T21:35:25.501Z,94722.52
2019-02-05T21:37:54.262Z,94727.10
2019-02-05T21:40:31.302Z,94739.19
2019-02-05T21:42:58.628Z,94739.29
2019-02-05T21:45:33.558Z,94739.25
2019-02-05T21:48:02.243Z,94734.97
2019-02-05T21:50:30.965Z,94740.47
2019-02-05T21:53:00.115Z,94734.02
2019-02-05T21:55:29.497Z,94730.10
2019-02-05T21:57:58.295Z,94731.72
2019-02-05T22:00:33.501Z,94729.02
2019-02-05T22:03:02.421Z,94723.65
2019-02-05T22:05:32.826Z,94725.66
2019-02-05T22:08:02.120Z,94725.27
2019-02-05T22:10:30.806Z,94725.56
2019-02-05T22:12:59.549Z,94727.73
2019-02-05T22:15:28.813Z,94726.78
2019-02-05T22:17:57.587Z,94734.91
2019-02-05T22:20:28.030Z,94733.13
2019-02-05T22:22:57.438Z,94727.59
2019-02-05T22:25:29.040Z,94727.35
2019-02-05T22:27:57.714Z,94720.48
2019-02-05T22:30:31.853Z,94716.21
2019-02-05T22:33:00.922Z,94708.52
2019-02-05T22:35:29.999Z,94703.52
2019-02-05T22:37:58.702Z,94703.55
2019-02-05T22:40:28.174Z,94695.23
2019-02-05T22:42:57.336Z,94697.75
2019-02-05T22:45:31.229Z,94700.84
2019-02-05T22:48:00.006Z,94693.47
2019-02-05T22:50:31.423Z,94697.11
2019-02-05T22:53:00.408Z,94691.84
2019-02-05T22:55:29.173Z,94694.66
2019-02-05T22:57:57.937Z,94699.36
2019-02-05T23:00:50.131Z,94687.77
2019-02-05T23:03:24.488Z,94693.69
2019-02-05T23:06:14.880Z,94686.72
2019-02-05T23:08:43.549Z,94689.27
2019-02-05T23:11:31.865Z,94686.39
2019-02-05T23:14:00.529Z,94674.64
2019-02-05T23:16:29.196Z,94663.98
2019-02-05T23:18:58.034Z,94655.63
2019-02-05T23:21:26.702Z,94654.22
2019-02-05T23:23:55.760Z,94653.00
2019-02-05T23:26:24.426Z,94645.47
2019-02-05T23:28:53.130Z,94647.70
2019-02-05T23:31:21.844Z,94645.23
2019-02-05T23:33:50.517Z,94656.67
2019-02-05T23:36:19.344Z,94648.38
2019-02-05T23:38:48.009Z,94645.28
2019-02-05T23:41:16.971Z,94639.55
2019-02-05T23:43:45.612Z,94645.78
2019-02-05T23:46:14.275Z,94645.22
2019-02-05T23:48:42.946Z,94637.50
2019-02-05T23:51:11.995Z,94644.18
2019-02-05T23:53:40.679Z,94642.98
2019-02-05T23:56:09.851Z,94631.94
2019-02-05T23:58:38.504Z,94634.39
